sensor_id;sensor_type;location;lat;lon;timestamp;pressure;altitude;pressure_sealevel;temperature;humidity
64294;BME280;50636;45.596;5.258;2023-05-25T00:02:02;98584.22;;;17.03;43.11
64294;BME280;50636;45.596;5.258;2023-05-25T00:04:31;98589.28;;;17.05;42.80
64294;BME280;50636;45.596;5.258;2023-05-25T00:06:59;98578.72;;;17.10;42.82
64294;BME280;50636;45.596;5.258;2023-05-25T00:09:25;98581.78;;;17.19;42.22
64294;BME280;50636;45.596;5.258;2023-05-25T00:11:51;98580.91;;;17.13;42.54
64294;BME280;50636;45.596;5.258;2023-05-25T00:14:18;98582.59;;;17.02;42.86
64294;BME280;50636;45.596;5.258;2023-05-25T00:16:44;98576.38;;;16.91;42.93
64294;BME280;50636;45.596;5.258;2023-05-25T00:19:13;98583.34;;;16.81;42.81
64294;BME280;50636;45.596;5.258;2023-05-25T00:21:40;98581.34;;;16.71;43.04
64294;BME280;50636;45.596;5.258;2023-05-25T00:24:06;98582.00;;;16.61;43.38
64294;BME280;50636;45.596;5.258;2023-05-25T00:26:33;98589.78;;;16.51;43.48
64294;BME280;50636;45.596;5.258;2023-05-25T00:28:59;98593.56;;;16.38;43.56
64294;BME280;50636;45.596;5.258;2023-05-25T00:31:26;98606.63;;;16.28;43.81
64294;BME280;50636;45.596;5.258;2023-05-25T00:33:52;98602.44;;;16.15;44.01
64294;BME280;50636;45.596;5.258;2023-05-25T00:36:18;98594.88;;;16.07;44.17
64294;BME280;50636;45.596;5.258;2023-05-25T00:38:44;98602.72;;;16.02;44.02
64294;BME280;50636;45.596;5.258;2023-05-25T00:41:09;98605.63;;;16.00;44.24
64294;BME280;50636;45.596;5.258;2023-05-25T00:43:35;98607.94;;;15.96;44.22
64294;BME280;50636;45.596;5.258;2023-05-25T00:46:02;98609.69;;;15.91;44.29
64294;BME280;50636;45.596;5.258;2023-05-25T00:48:27;98604.88;;;15.88;44.43
64294;BME280;50636;45.596;5.258;2023-05-25T00:50:54;98609.28;;;15.82;44.67
64294;BME280;50636;45.596;5.258;2023-05-25T00:53:24;98607.81;;;15.74;44.70
64294;BME280;50636;45.596;5.258;2023-05-25T00:56:13;98596.41;;;15.74;44.78
64294;BME280;50636;45.596;5.258;2023-05-25T00:58:39;98598.19;;;15.85;44.66
64294;BME280;50636;45.596;5.258;2023-05-25T01:01:08;98593.91;;;15.96;44.56
64294;BME280;50636;45.596;5.258;2023-05-25T01:03:39;98595.84;;;16.01;44.34
64294;BME280;50636;45.596;5.258;2023-05-25T01:06:11;98586.94;;;16.07;44.36
64294;BME280;50636;45.596;5.258;2023-05-25T01:08:39;98591.78;;;16.10;44.22
64294;BME280;50636;45.596;5.258;2023-05-25T01:11:10;98593.88;;;16.08;44.22
64294;BME280;50636;45.596;5.258;2023-05-25T01:13:37;98590.16;;;16.09;44.13
64294;BME280;50636;45.596;5.258;2023-05-25T01:16:07;98596.25;;;16.09;44.21
64294;BME280;50636;45.596;5.258;2023-05-25T01:18:33;98593.28;;;16.06;44.25
64294;BME280;50636;45.596;5.258;2023-05-25T01:21:14;98590.44;;;15.95;44.28
64294;BME280;50636;45.596;5.258;2023-05-25T01:23:49;98590.03;;;15.87;44.51
64294;BME280;50636;45.596;5.258;2023-05-25T01:26:17;98591.22;;;15.79;44.74
64294;BME280;50636;45.596;5.258;2023-05-25T01:28:51;98585.59;;;15.75;45.13
64294;BME280;50636;45.596;5.258;2023-05-25T01:31:20;98587.66;;;15.73;44.97
64294;BME280;50636;45.596;5.258;2023-05-25T01:33:49;98585.59;;;15.75;45.21
64294;BME280;50636;45.596;5.258;2023-05-25T01:36:17;98591.94;;;15.74;45.03
64294;BME280;50636;45.596;5.258;2023-05-25T01:38:42;98593.06;;;15.67;45.17
64294;BME280;50636;45.596;5.258;2023-05-25T01:41:08;98600.81;;;15.56;45.21
64294;BME280;50636;45.596;5.258;2023-05-25T01:43:34;98609.69;;;15.50;45.71
64294;BME280;50636;45.596;5.258;2023-05-25T01:46:21;98598.19;;;15.45;46.02
64294;BME280;50636;45.596;5.258;2023-05-25T01:49:19;98596.47;;;15.38;45.99
64294;BME280;50636;45.596;5.258;2023-05-25T01:52:07;98594.53;;;15.34;45.99
64294;BME280;50636;45.596;5.258;2023-05-25T01:54:37;98598.91;;;15.28;46.46
64294;BME280;50636;45.596;5.258;2023-05-25T01:57:11;98602.84;;;15.26;46.42
64294;BME280;50636;45.596;5.258;2023-05-25T01:59:41;98602.84;;;15.26;46.70
64294;BME280;50636;45.596;5.258;2023-05-25T02:02:08;98597.78;;;15.24;46.80
64294;BME280;50636;45.596;5.258;2023-05-25T02:04:34;98601.94;;;15.20;46.83
64294;BME280;50636;45.596;5.258;2023-05-25T02:07:03;98596.28;;;15.16;46.84
64294;BME280;50636;45.596;5.258;2023-05-25T02:09:29;98590.66;;;15.13;46.78
64294;BME280;50636;45.596;5.258;2023-05-25T02:11:54;98595.84;;;15.08;46.97
64294;BME280;50636;45.596;5.258;2023-05-25T02:14:21;98605.50;;;15.02;47.15
64294;BME280;50636;45.596;5.258;2023-05-25T02:16:46;98598.28;;;14.97;47.33
64294;BME280;50636;45.596;5.258;2023-05-25T02:19:12;98602.78;;;14.97;47.23
64294;BME280;50636;45.596;5.258;2023-05-25T02:21:40;98598.72;;;14.94;47.22
64294;BME280;50636;45.596;5.258;2023-05-25T02:24:06;98595.16;;;14.89;47.40
64294;BME280;50636;45.596;5.258;2023-05-25T02:26:37;98598.28;;;14.86;47.61
64294;BME280;50636;45.596;5.258;2023-05-25T02:29:04;98595.28;;;14.82;47.61
64294;BME280;50636;45.596;5.258;2023-05-25T02:31:31;98590.91;;;14.76;47.63
64294;BME280;50636;45.596;5.258;2023-05-25T02:33:57;98589.66;;;14.67;48.03
64294;BME280;50636;45.596;5.258;2023-05-25T02:36:23;98591.59;;;14.60;48.27
64294;BME280;50636;45.596;5.258;2023-05-25T02:38:49;98590.28;;;14.50;48.41
64294;BME280;50636;45.596;5.258;2023-05-25T02:41:18;98582.28;;;14.45;48.50
64294;BME280;50636;45.596;5.258;2023-05-25T02:43:44;98585.47;;;14.47;48.64
64294;BME280;50636;45.596;5.258;2023-05-25T02:46:10;98581.56;;;14.50;48.68
64294;BME280;50636;45.596;5.258;2023-05-25T02:48:36;98579.16;;;14.48;48.98
64294;BME280;50636;45.596;5.258;2023-05-25T02:51:02;98591.34;;;14.49;48.81
64294;BME280;50636;45.596;5.258;2023-05-25T02:53:28;98592.34;;;14.48;48.91
64294;BME280;50636;45.596;5.258;2023-05-25T02:55:54;98589.97;;;14.47;49.06
64294;BME280;50636;45.596;5.258;2023-05-25T02:58:21;98593.03;;;14.44;49.10
64294;BME280;50636;45.596;5.258;2023-05-25T03:00:48;98597.97;;;14.40;49.16
64294;BME280;50636;45.596;5.258;2023-05-25T03:03:15;98595.81;;;14.37;49.24
64294;BME280;50636;45.596;5.258;2023-05-25T03:05:40;98592.22;;;14.31;49.59
64294;BME280;50636;45.596;5.258;2023-05-25T03:08:06;98597.28;;;14.33;49.79
64294;BME280;50636;45.596;5.258;2023-05-25T03:10:32;98599.78;;;14.28;50.06
64294;BME280;50636;45.596;5.258;2023-05-25T03:12:58;98602.56;;;14.33;50.06
64294;BME280;50636;45.596;5.258;2023-05-25T03:15:23;98595.09;;;14.30;50.19
64294;BME280;50636;45.596;5.258;2023-05-25T03:17:49;98601.41;;;14.29;50.37
64294;BME280;50636;45.596;5.258;2023-05-25T03:20:15;98596.56;;;14.26;50.55
64294;BME280;50636;45.596;5.258;2023-05-25T03:22:41;98602.66;;;14.26;50.55
64294;BME280;50636;45.596;5.258;2023-05-25T03:25:08;98605.53;;;14.25;50.38
64294;BME280;50636;45.596;5.258;2023-05-25T03:27:37;98606.44;;;14.18;50.76
64294;BME280;50636;45.596;5.258;2023-05-25T03:30:04;98602.53;;;14.21;50.53
64294;BME280;50636;45.596;5.258;2023-05-25T03:32:29;98610.56;;;14.26;50.47
64294;BME280;50636;45.596;5.258;2023-05-25T03:34:56;98603.16;;;14.35;50.20
64294;BME280;50636;45.596;5.258;2023-05-25T03:37:22;98608.75;;;14.38;50.28
64294;BME280;50636;45.596;5.258;2023-05-25T03:39:48;98606.38;;;14.37;50.34
64294;BME280;50636;45.596;5.258;2023-05-25T03:42:14;98607.59;;;14.34;50.35
64294;BME280;50636;45.596;5.258;2023-05-25T03:44:39;98607.38;;;14.36;50.29
64294;BME280;50636;45.596;5.258;2023-05-25T03:47:05;98617.94;;;14.36;50.22
64294;BME280;50636;45.596;5.258;2023-05-25T03:49:31;98615.41;;;14.29;50.56
64294;BME280;50636;45.596;5.258;2023-05-25T03:51:57;98625.25;;;14.22;50.63
64294;BME280;50636;45.596;5.258;2023-05-25T03:54:26;98623.50;;;14.16;50.73
64294;BME280;50636;45.596;5.258;2023-05-25T03:56:52;98629.47;;;14.11;51.00
64294;BME280;50636;45.596;5.258;2023-05-25T03:59:18;98624.50;;;14.03;51.11
64294;BME280;50636;45.596;5.258;2023-05-25T04:01:44;98627.81;;;13.98;51.60
64294;BME280;50636;45.596;5.258;2023-05-25T04:04:10;98630.69;;;13.97;51.95
64294;BME280;50636;45.596;5.258;2023-05-25T04:06:36;98627.81;;;13.98;51.73
64294;BME280;50636;45.596;5.258;2023-05-25T04:09:03;98630.22;;;14.00;51.31
64294;BME280;50636;45.596;5.258;2023-05-25T04:11:29;98627.81;;;13.98;51.33
64294;BME280;50636;45.596;5.258;2023-05-25T04:13:55;98630.22;;;14.00;51.39
64294;BME280;50636;45.596;5.258;2023-05-25T04:16:20;98623.13;;;14.01;51.36
64294;BME280;50636;45.596;5.258;2023-05-25T04:18:46;98622.88;;;14.02;51.44
64294;BME280;50636;45.596;5.258;2023-05-25T04:21:12;98628.63;;;13.99;51.91
64294;BME280;50636;45.596;5.258;2023-05-25T04:23:38;98628.63;;;13.99;51.90
64294;BME280;50636;45.596;5.258;2023-05-25T04:26:04;98625.53;;;14.02;51.76
64294;BME280;50636;45.596;5.258;2023-05-25T04:28:31;98627.94;;;14.04;52.03
64294;BME280;50636;45.596;5.258;2023-05-25T04:30:56;98625.00;;;14.12;51.70
64294;BME280;50636;45.596;5.258;2023-05-25T04:33:22;98627.31;;;14.20;51.79
64294;BME280;50636;45.596;5.258;2023-05-25T04:35:49;98625.25;;;14.22;51.12
64294;BME280;50636;45.596;5.258;2023-05-25T04:38:15;98627.56;;;14.18;51.38
64294;BME280;50636;45.596;5.258;2023-05-25T04:40:42;98621.00;;;14.21;51.26
64294;BME280;50636;45.596;5.258;2023-05-25T04:43:10;98621.13;;;14.26;51.07
64294;BME280;50636;45.596;5.258;2023-05-25T04:45:38;98627.13;;;14.33;50.82
64294;BME280;50636;45.596;5.258;2023-05-25T04:48:04;98628.50;;;14.36;50.86
64294;BME280;50636;45.596;5.258;2023-05-25T04:50:29;98629.53;;;14.35;51.04
64294;BME280;50636;45.596;5.258;2023-05-25T04:52:55;98629.53;;;14.35;51.00
64294;BME280;50636;45.596;5.258;2023-05-25T04:55:21;98627.91;;;14.34;51.10
64294;BME280;50636;45.596;5.258;2023-05-25T04:57:47;98634.34;;;14.38;50.91
64294;BME280;50636;45.596;5.258;2023-05-25T05:00:13;98638.16;;;14.42;51.29
64294;BME280;50636;45.596;5.258;2023-05-25T05:02:39;98637.97;;;14.55;51.09
64294;BME280;50636;45.596;5.258;2023-05-25T05:05:06;98642.25;;;14.80;50.71
64294;BME280;50636;45.596;5.258;2023-05-25T05:07:32;98650.56;;;15.07;50.04
64294;BME280;50636;45.596;5.258;2023-05-25T05:09:57;98656.00;;;15.65;49.17
64294;BME280;50636;45.596;5.258;2023-05-25T05:12:23;98661.31;;;16.51;47.66
64294;BME280;50636;45.596;5.258;2023-05-25T05:14:49;98657.75;;;17.47;45.29
64294;BME280;50636;45.596;5.258;2023-05-25T05:17:14;98648.56;;;18.26;43.41
64294;BME280;50636;45.596;5.258;2023-05-25T05:19:42;98649.31;;;18.81;41.88
64294;BME280;50636;45.596;5.258;2023-05-25T05:22:07;98658.38;;;19.27;40.78
64294;BME280;50636;45.596;5.258;2023-05-25T05:24:34;98658.44;;;19.38;40.51
64294;BME280;50636;45.596;5.258;2023-05-25T05:27:00;98661.13;;;19.43;39.79
64294;BME280;50636;45.596;5.258;2023-05-25T05:29:26;98669.75;;;19.12;40.16
64294;BME280;50636;45.596;5.258;2023-05-25T05:31:54;98673.66;;;19.00;40.49
64294;BME280;50636;45.596;5.258;2023-05-25T05:34:20;98672.09;;;18.71;40.95
64294;BME280;50636;45.596;5.258;2023-05-25T05:36:46;98675.09;;;18.53;41.50
64294;BME280;50636;45.596;5.258;2023-05-25T05:39:12;98676.56;;;18.39;41.32
64294;BME280;50636;45.596;5.258;2023-05-25T05:41:38;98678.56;;;17.99;42.11
64294;BME280;50636;45.596;5.258;2023-05-25T05:44:08;98680.63;;;17.53;42.88
64294;BME280;50636;45.596;5.258;2023-05-25T05:46:33;98690.34;;;17.25;43.60
64294;BME280;50636;45.596;5.258;2023-05-25T05:49:00;98690.34;;;17.25;43.94
64294;BME280;50636;45.596;5.258;2023-05-25T05:51:26;98691.22;;;17.31;43.70
64294;BME280;50636;45.596;5.258;2023-05-25T05:53:52;98690.47;;;17.35;43.88
64294;BME280;50636;45.596;5.258;2023-05-25T05:56:18;98687.72;;;17.47;43.30
64294;BME280;50636;45.596;5.258;2023-05-25T05:58:44;98689.81;;;17.45;43.48
64294;BME280;50636;45.596;5.258;2023-05-25T06:01:09;98696.59;;;17.58;43.57
64294;BME280;50636;45.596;5.258;2023-05-25T06:03:35;98681.84;;;17.84;42.93
64294;BME280;50636;45.596;5.258;2023-05-25T06:06:03;98699.50;;;17.78;43.02
64294;BME280;50636;45.596;5.258;2023-05-25T06:08:29;98696.56;;;17.75;43.26
64294;BME280;50636;45.596;5.258;2023-05-25T06:10:54;98692.88;;;17.98;43.00
64294;BME280;50636;45.596;5.258;2023-05-25T06:13:20;98682.75;;;18.76;41.98
64294;BME280;50636;45.596;5.258;2023-05-25T06:15:46;98683.63;;;20.66;39.20
64294;BME280;50636;45.596;5.258;2023-05-25T06:18:12;98690.34;;;22.40;35.70
64294;BME280;50636;45.596;5.258;2023-05-25T06:20:38;98695.25;;;23.55;33.66
64294;BME280;50636;45.596;5.258;2023-05-25T06:23:03;98684.63;;;23.93;32.65
64294;BME280;50636;45.596;5.258;2023-05-25T06:25:29;98697.56;;;24.29;32.11
64294;BME280;50636;45.596;5.258;2023-05-25T06:27:56;98695.09;;;24.13;31.89
64294;BME280;50636;45.596;5.258;2023-05-25T06:30:22;98706.00;;;23.98;32.07
64294;BME280;50636;45.596;5.258;2023-05-25T06:32:47;98702.72;;;24.63;31.17
64294;BME280;50636;45.596;5.258;2023-05-25T06:35:13;98700.72;;;25.35;30.31
64294;BME280;50636;45.596;5.258;2023-05-25T06:37:47;98704.00;;;26.37;29.18
64294;BME280;50636;45.596;5.258;2023-05-25T06:40:16;98706.97;;;26.95;27.74
64294;BME280;50636;45.596;5.258;2023-05-25T06:42:42;98699.38;;;26.51;27.66
64294;BME280;50636;45.596;5.258;2023-05-25T06:45:08;98708.28;;;25.74;28.41
64294;BME280;50636;45.596;5.258;2023-05-25T06:47:35;98720.56;;;25.20;29.37
64294;BME280;50636;45.596;5.258;2023-05-25T06:50:01;98713.94;;;25.45;29.18
64294;BME280;50636;45.596;5.258;2023-05-25T06:52:27;98712.53;;;26.17;28.40
64294;BME280;50636;45.596;5.258;2023-05-25T06:54:54;98716.47;;;26.33;28.01
64294;BME280;50636;45.596;5.258;2023-05-25T06:57:23;98721.03;;;25.68;28.46
64294;BME280;50636;45.596;5.258;2023-05-25T06:59:49;98733.69;;;25.68;29.09
64294;BME280;50636;45.596;5.258;2023-05-25T07:02:15;98723.13;;;26.36;28.09
64294;BME280;50636;45.596;5.258;2023-05-25T07:04:41;98710.53;;;26.81;27.23
64294;BME280;50636;45.596;5.258;2023-05-25T07:07:07;98713.09;;;27.40;27.12
64294;BME280;50636;45.596;5.258;2023-05-25T07:09:33;98725.41;;;27.64;26.67
64294;BME280;50636;45.596;5.258;2023-05-25T07:11:59;98724.88;;;27.93;26.19
64294;BME280;50636;45.596;5.258;2023-05-25T07:14:25;98728.47;;;27.40;26.51
64294;BME280;50636;45.596;5.258;2023-05-25T07:16:51;98739.25;;;26.49;27.17
64294;BME280;50636;45.596;5.258;2023-05-25T07:19:17;98738.16;;;25.12;28.90
64294;BME280;50636;45.596;5.258;2023-05-25T07:21:43;98749.72;;;23.99;30.65
64294;BME280;50636;45.596;5.258;2023-05-25T07:24:08;98767.56;;;23.26;31.66
64294;BME280;50636;45.596;5.258;2023-05-25T07:26:34;98763.06;;;22.82;32.38
64294;BME280;50636;45.596;5.258;2023-05-25T07:29:01;98768.22;;;22.28;33.26
64294;BME280;50636;45.596;5.258;2023-05-25T07:31:27;98762.69;;;21.99;33.82
64294;BME280;50636;45.596;5.258;2023-05-25T07:33:53;98768.16;;;21.73;34.48
64294;BME280;50636;45.596;5.258;2023-05-25T07:36:20;98778.31;;;21.66;34.35
64294;BME280;50636;45.596;5.258;2023-05-25T07:38:46;98769.00;;;21.48;35.15
64294;BME280;50636;45.596;5.258;2023-05-25T07:41:12;98774.84;;;21.50;35.56
64294;BME280;50636;45.596;5.258;2023-05-25T07:43:41;98776.47;;;21.41;35.61
64294;BME280;50636;45.596;5.258;2023-05-25T07:46:06;98785.50;;;21.81;35.15
64294;BME280;50636;45.596;5.258;2023-05-25T07:48:32;98776.34;;;22.97;33.87
64294;BME280;50636;45.596;5.258;2023-05-25T07:50:58;98786.72;;;24.21;31.75
64294;BME280;50636;45.596;5.258;2023-05-25T07:53:24;98786.44;;;24.41;31.16
64294;BME280;50636;45.596;5.258;2023-05-25T07:55:49;98788.09;;;23.94;31.65
64294;BME280;50636;45.596;5.258;2023-05-25T07:58:15;98778.84;;;23.52;32.22
64294;BME280;50636;45.596;5.258;2023-05-25T08:00:41;98781.66;;;23.07;32.74
64294;BME280;50636;45.596;5.258;2023-05-25T08:03:08;98782.63;;;22.82;33.59
64294;BME280;50636;45.596;5.258;2023-05-25T08:05:34;98784.09;;;22.64;33.51
64294;BME280;50636;45.596;5.258;2023-05-25T08:07:59;98791.66;;;22.47;33.69
64294;BME280;50636;45.596;5.258;2023-05-25T08:10:25;98785.09;;;22.19;34.41
64294;BME280;50636;45.596;5.258;2023-05-25T08:12:57;98787.34;;;22.51;34.11
64294;BME280;50636;45.596;5.258;2023-05-25T08:15:23;98796.16;;;22.57;34.10
64294;BME280;50636;45.596;5.258;2023-05-25T08:17:49;98789.84;;;22.37;34.27
64294;BME280;50636;45.596;5.258;2023-05-25T08:20:16;98786.41;;;22.26;34.23
64294;BME280;50636;45.596;5.258;2023-05-25T08:22:41;98801.94;;;22.24;34.93
64294;BME280;50636;45.596;5.258;2023-05-25T08:25:10;98797.44;;;22.09;34.65
64294;BME280;50636;45.596;5.258;2023-05-25T08:27:36;98805.47;;;21.99;34.73
64294;BME280;50636;45.596;5.258;2023-05-25T08:30:03;98811.13;;;21.82;35.34
64294;BME280;50636;45.596;5.258;2023-05-25T08:32:32;98816.22;;;21.79;35.23
64294;BME280;50636;45.596;5.258;2023-05-25T08:34:58;98819.66;;;21.79;35.36
64294;BME280;50636;45.596;5.258;2023-05-25T08:37:24;98809.00;;;21.89;35.65
64294;BME280;50636;45.596;5.258;2023-05-25T08:39:50;98801.69;;;22.10;35.04
64294;BME280;50636;45.596;5.258;2023-05-25T08:42:16;98799.72;;;22.42;34.74
64294;BME280;50636;45.596;5.258;2023-05-25T08:44:42;98804.16;;;22.62;34.32
64294;BME280;50636;45.596;5.258;2023-05-25T08:47:09;98808.56;;;22.82;34.76
64294;BME280;50636;45.596;5.258;2023-05-25T08:49:37;98808.81;;;22.85;34.23
64294;BME280;50636;45.596;5.258;2023-05-25T08:52:04;98815.47;;;22.48;34.80
64294;BME280;50636;45.596;5.258;2023-05-25T08:54:35;98823.06;;;22.16;35.22
64294;BME280;50636;45.596;5.258;2023-05-25T08:57:39;98827.44;;;21.81;35.62
64294;BME280;50636;45.596;5.258;2023-05-25T09:00:06;98839.44;;;21.27;36.87
64294;BME280;50636;45.596;5.258;2023-05-25T09:02:57;98843.69;;;21.02;36.75
64294;BME280;50636;45.596;5.258;2023-05-25T09:05:25;98848.22;;;20.91;36.82
64294;BME280;50636;45.596;5.258;2023-05-25T09:07:52;98850.31;;;20.69;37.70
64294;BME280;50636;45.596;5.258;2023-05-25T09:10:22;98851.69;;;20.82;37.70
64294;BME280;50636;45.596;5.258;2023-05-25T09:12:50;98863.69;;;20.94;37.36
64294;BME280;50636;45.596;5.258;2023-05-25T09:15:17;98859.19;;;20.95;37.58
64294;BME280;50636;45.596;5.258;2023-05-25T09:17:43;98858.91;;;20.91;37.94
64294;BME280;50636;45.596;5.258;2023-05-25T09:20:12;98862.94;;;20.99;38.75
64294;BME280;50636;45.596;5.258;2023-05-25T09:22:39;98870.16;;;21.19;38.25
64294;BME280;50636;45.596;5.258;2023-05-25T09:25:06;98872.53;;;21.21;38.42
64294;BME280;50636;45.596;5.258;2023-05-25T09:27:35;98876.59;;;21.33;37.93
64294;BME280;50636;45.596;5.258;2023-05-25T09:30:05;98863.25;;;21.49;37.30
64294;BME280;50636;45.596;5.258;2023-05-25T09:32:31;98868.31;;;21.71;36.93
64294;BME280;50636;45.596;5.258;2023-05-25T09:35:09;98872.81;;;22.01;36.73
64294;BME280;50636;45.596;5.258;2023-05-25T09:37:35;98877.84;;;22.28;36.36
64294;BME280;50636;45.596;5.258;2023-05-25T09:40:02;98865.59;;;22.82;35.75
64294;BME280;50636;45.596;5.258;2023-05-25T09:42:33;98864.66;;;23.07;35.21
64294;BME280;50636;45.596;5.258;2023-05-25T09:45:00;98863.69;;;23.32;35.10
64294;BME280;50636;45.596;5.258;2023-05-25T09:47:27;98863.13;;;23.65;34.58
64294;BME280;50636;45.596;5.258;2023-05-25T09:49:53;98874.69;;;23.95;33.95
64294;BME280;50636;45.596;5.258;2023-05-25T09:52:20;98865.16;;;24.31;33.22
64294;BME280;50636;45.596;5.258;2023-05-25T09:54:48;98865.56;;;24.20;33.23
64294;BME280;50636;45.596;5.258;2023-05-25T09:57:20;98872.84;;;24.38;32.91
64294;BME280;50636;45.596;5.258;2023-05-25T09:59:46;98871.50;;;24.84;32.60
64294;BME280;50636;45.596;5.258;2023-05-25T10:02:13;98871.78;;;25.20;32.11
64294;BME280;50636;45.596;5.258;2023-05-25T10:04:39;98872.50;;;25.78;31.32
64294;BME280;50636;45.596;5.258;2023-05-25T10:07:06;98875.22;;;26.47;30.27
64294;BME280;50636;45.596;5.258;2023-05-25T10:09:38;98872.84;;;27.55;29.26
64294;BME280;50636;45.596;5.258;2023-05-25T10:12:06;98877.88;;;28.41;27.60
64294;BME280;50636;45.596;5.258;2023-05-25T10:14:34;98878.44;;;29.04;26.58
64294;BME280;50636;45.596;5.258;2023-05-25T10:17:03;98881.97;;;29.96;25.79
64294;BME280;50636;45.596;5.258;2023-05-25T10:19:38;98879.81;;;30.57;24.69
64294;BME280;50636;45.596;5.258;2023-05-25T10:22:15;98881.34;;;30.37;24.62
64294;BME280;50636;45.596;5.258;2023-05-25T10:24:55;98885.63;;;30.00;25.16
64294;BME280;50636;45.596;5.258;2023-05-25T10:27:23;98887.63;;;29.73;25.18
64294;BME280;50636;45.596;5.258;2023-05-25T10:29:51;98888.41;;;29.65;25.32
64294;BME280;50636;45.596;5.258;2023-05-25T10:32:18;98891.94;;;29.74;25.56
64294;BME280;50636;45.596;5.258;2023-05-25T10:34:45;98895.63;;;29.52;25.31
64294;BME280;50636;45.596;5.258;2023-05-25T10:37:15;98892.25;;;28.68;26.44
64294;BME280;50636;45.596;5.258;2023-05-25T10:39:41;98897.38;;;28.38;26.72
64294;BME280;50636;45.596;5.258;2023-05-25T10:42:11;98899.69;;;28.22;27.12
64294;BME280;50636;45.596;5.258;2023-05-25T10:44:41;98900.53;;;28.32;27.62
64294;BME280;50636;45.596;5.258;2023-05-25T10:47:07;98901.88;;;28.12;27.73
64294;BME280;50636;45.596;5.258;2023-05-25T10:49:52;98903.72;;;27.71;28.32
64294;BME280;50636;45.596;5.258;2023-05-25T10:52:18;98906.72;;;27.92;27.77
64294;BME280;50636;45.596;5.258;2023-05-25T10:54:46;98904.50;;;28.25;27.07
64294;BME280;50636;45.596;5.258;2023-05-25T10:57:20;98899.41;;;28.33;27.01
64294;BME280;50636;45.596;5.258;2023-05-25T10:59:51;98899.72;;;27.68;27.83
64294;BME280;50636;45.596;5.258;2023-05-25T11:02:20;98906.13;;;27.50;28.48
64294;BME280;50636;45.596;5.258;2023-05-25T11:04:49;98911.31;;;27.92;27.85
64294;BME280;50636;45.596;5.258;2023-05-25T11:07:16;98912.28;;;27.28;28.84
64294;BME280;50636;45.596;5.258;2023-05-25T11:09:55;98920.06;;;26.24;29.71
64294;BME280;50636;45.596;5.258;2023-05-25T11:12:25;98912.28;;;25.43;30.99
64294;BME280;50636;45.596;5.258;2023-05-25T11:15:13;98909.19;;;26.01;31.16
64294;BME280;50636;45.596;5.258;2023-05-25T11:17:59;98910.31;;;26.83;30.02
64294;BME280;50636;45.596;5.258;2023-05-25T11:20:27;98900.28;;;26.98;29.58
64294;BME280;50636;45.596;5.258;2023-05-25T11:22:53;98896.56;;;27.44;29.05
64294;BME280;50636;45.596;5.258;2023-05-25T11:25:38;98892.31;;;27.74;28.93
64294;BME280;50636;45.596;5.258;2023-05-25T11:28:06;98896.97;;;27.60;28.98
64294;BME280;50636;45.596;5.258;2023-05-25T11:30:32;98904.47;;;27.40;29.09
64294;BME280;50636;45.596;5.258;2023-05-25T11:33:04;98913.47;;;26.99;29.21
64294;BME280;50636;45.596;5.258;2023-05-25T11:35:32;98905.72;;;26.84;29.72
64294;BME280;50636;45.596;5.258;2023-05-25T11:37:58;98905.06;;;26.64;30.16
64294;BME280;50636;45.596;5.258;2023-05-25T11:40:28;98901.16;;;26.29;30.55
64294;BME280;50636;45.596;5.258;2023-05-25T11:42:56;98897.66;;;26.28;31.10
64294;BME280;50636;45.596;5.258;2023-05-25T11:45:27;98903.03;;;26.15;31.04
64294;BME280;50636;45.596;5.258;2023-05-25T11:47:53;98903.75;;;26.20;31.27
64294;BME280;50636;45.596;5.258;2023-05-25T11:50:19;98923.16;;;26.31;31.43
64294;BME280;50636;45.596;5.258;2023-05-25T11:52:46;98920.28;;;26.41;30.93
64294;BME280;50636;45.596;5.258;2023-05-25T11:55:12;98911.59;;;26.72;30.79
64294;BME280;50636;45.596;5.258;2023-05-25T11:57:41;98911.09;;;26.84;30.78
64294;BME280;50636;45.596;5.258;2023-05-25T12:00:07;98911.59;;;26.86;31.01
64294;BME280;50636;45.596;5.258;2023-05-25T12:02:39;98910.81;;;26.72;31.04
64294;BME280;50636;45.596;5.258;2023-05-25T12:05:08;98903.00;;;26.84;30.95
64294;BME280;50636;45.596;5.258;2023-05-25T12:07:41;98894.06;;;27.11;30.77
64294;BME280;50636;45.596;5.258;2023-05-25T12:10:10;98893.88;;;27.44;29.96
64294;BME280;50636;45.596;5.258;2023-05-25T12:12:49;98888.09;;;28.13;29.32
64294;BME280;50636;45.596;5.258;2023-05-25T12:15:19;98888.59;;;28.64;28.74
64294;BME280;50636;45.596;5.258;2023-05-25T12:17:46;98898.34;;;28.42;28.61
64294;BME280;50636;45.596;5.258;2023-05-25T12:20:13;98898.06;;;28.13;29.01
64294;BME280;50636;45.596;5.258;2023-05-25T12:22:40;98901.75;;;27.85;29.36
64294;BME280;50636;45.596;5.258;2023-05-25T12:25:07;98912.59;;;27.26;30.45
64294;BME280;50636;45.596;5.258;2023-05-25T12:27:34;98921.59;;;27.08;30.46
64294;BME280;50636;45.596;5.258;2023-05-25T12:30:01;98923.28;;;26.81;31.16
64294;BME280;50636;45.596;5.258;2023-05-25T12:32:28;98932.56;;;26.61;31.20
64294;BME280;50636;45.596;5.258;2023-05-25T12:35:04;98926.25;;;26.52;31.48
64294;BME280;50636;45.596;5.258;2023-05-25T12:37:30;98928.88;;;26.71;31.33
64294;BME280;50636;45.596;5.258;2023-05-25T12:39:56;98926.69;;;27.23;31.36
64294;BME280;50636;45.596;5.258;2023-05-25T12:42:22;98916.28;;;28.07;30.78
64294;BME280;50636;45.596;5.258;2023-05-25T12:44:55;98916.25;;;28.87;29.28
64294;BME280;50636;45.596;5.258;2023-05-25T12:47:23;98906.59;;;29.38;28.94
64294;BME280;50636;45.596;5.258;2023-05-25T12:49:51;98913.75;;;29.34;28.40
64294;BME280;50636;45.596;5.258;2023-05-25T12:52:37;98912.78;;;29.47;28.55
64294;BME280;50636;45.596;5.258;2023-05-25T12:58:25;98912.44;;;28.97;29.38
64294;BME280;50636;45.596;5.258;2023-05-25T13:00:38;98907.50;;;28.81;28.79
64294;BME280;50636;45.596;5.258;2023-05-25T13:03:06;98910.88;;;28.47;29.49
64294;BME280;50636;45.596;5.258;2023-05-25T13:05:33;98911.66;;;28.30;29.81
64294;BME280;50636;45.596;5.258;2023-05-25T13:08:01;98910.78;;;28.12;30.55